sensor_id;sensor_type;location;lat;lon;timestamp;P1;durP1;ratioP1;P2;durP2;ratioP2
71387;SDS011;59201;59.902;10.520;2023-05-10T00:02:10;9.25;;;3.10;;
71387;SDS011;59201;59.902;10.520;2023-05-10T00:04:40;11.10;;;3.70;;
71387;SDS011;59201;59.902;10.520;2023-05-10T00:07:08;16.23;;;3.80;;
71387;SDS011;59201;59.902;10.520;2023-05-10T00:09:38;10.20;;;3.20;;
71387;SDS011;59201;59.902;10.520;2023-05-10T00:12:08;11.60;;;3.30;;
71387;SDS011;59201;59.902;10.520;2023-05-10T00:14:39;13.85;;;3.70;;
71387;SDS011;59201;59.902;10.520;2023-05-10T00:17:13;14.23;;;3.40;;
71387;SDS011;59201;59.902;10.520;2023-05-10T00:19:44;13.13;;;3.70;;
71387;SDS011;59201;59.902;10.520;2023-05-10T00:22:14;10.20;;;3.20;;
71387;SDS011;59201;59.902;10.520;2023-05-10T00:24:44;12.23;;;3.40;;
71387;SDS011;59201;59.902;10.520;2023-05-10T00:27:16;10.00;;;3.53;;
71387;SDS011;59201;59.902;10.520;2023-05-10T00:29:43;12.38;;;3.67;;
71387;SDS011;59201;59.902;10.520;2023-05-10T00:32:13;11.38;;;3.17;;
71387;SDS011;59201;59.902;10.520;2023-05-10T00:34:45;12.73;;;3.90;;
71387;SDS011;59201;59.902;10.520;2023-05-10T00:37:13;12.68;;;3.40;;
71387;SDS011;59201;59.902;10.520;2023-05-10T00:39:45;12.43;;;3.85;;
71387;SDS011;59201;59.902;10.520;2023-05-10T00:42:15;11.80;;;3.65;;
71387;SDS011;59201;59.902;10.520;2023-05-10T00:44:44;13.32;;;3.63;;
71387;SDS011;59201;59.902;10.520;2023-05-10T00:47:15;12.43;;;3.20;;
71387;SDS011;59201;59.902;10.520;2023-05-10T00:49:43;10.45;;;3.75;;
71387;SDS011;59201;59.902;10.520;2023-05-10T00:52:12;22.98;;;3.50;;
71387;SDS011;59201;59.902;10.520;2023-05-10T00:54:44;9.68;;;3.20;;
71387;SDS011;59201;59.902;10.520;2023-05-10T00:57:14;12.85;;;3.42;;
71387;SDS011;59201;59.902;10.520;2023-05-10T00:59:45;9.27;;;3.23;;
71387;SDS011;59201;59.902;10.520;2023-05-10T01:02:14;9.05;;;3.22;;
71387;SDS011;59201;59.902;10.520;2023-05-10T01:04:45;9.40;;;3.00;;
71387;SDS011;59201;59.902;10.520;2023-05-10T01:07:20;9.88;;;3.47;;
71387;SDS011;59201;59.902;10.520;2023-05-10T01:09:48;9.90;;;3.92;;
71387;SDS011;59201;59.902;10.520;2023-05-10T01:12:29;14.10;;;4.47;;
71387;SDS011;59201;59.902;10.520;2023-05-10T01:14:57;12.02;;;4.45;;
71387;SDS011;59201;59.902;10.520;2023-05-10T01:17:29;12.70;;;3.42;;
71387;SDS011;59201;59.902;10.520;2023-05-10T01:20:01;10.93;;;3.63;;
71387;SDS011;59201;59.902;10.520;2023-05-10T01:36:01;11.55;;;3.63;;
71387;SDS011;59201;59.902;10.520;2023-05-10T01:43:57;12.70;;;3.83;;
71387;SDS011;59201;59.902;10.520;2023-05-10T01:46:51;14.82;;;4.40;;
71387;SDS011;59201;59.902;10.520;2023-05-10T01:49:23;11.27;;;3.58;;
71387;SDS011;59201;59.902;10.520;2023-05-10T01:51:53;12.00;;;3.60;;
71387;SDS011;59201;59.902;10.520;2023-05-10T01:57:25;10.63;;;3.95;;
71387;SDS011;59201;59.902;10.520;2023-05-10T01:59:57;13.73;;;4.45;;
71387;SDS011;59201;59.902;10.520;2023-05-10T02:02:29;11.85;;;3.92;;
71387;SDS011;59201;59.902;10.520;2023-05-10T02:04:59;10.33;;;3.60;;
71387;SDS011;59201;59.902;10.520;2023-05-10T02:07:28;9.70;;;3.45;;
71387;SDS011;59201;59.902;10.520;2023-05-10T02:09:56;10.27;;;3.85;;
71387;SDS011;59201;59.902;10.520;2023-05-10T02:12:29;10.98;;;3.65;;
71387;SDS011;59201;59.902;10.520;2023-05-10T02:15:08;12.02;;;3.85;;
71387;SDS011;59201;59.902;10.520;2023-05-10T02:17:36;10.37;;;3.93;;
71387;SDS011;59201;59.902;10.520;2023-05-10T02:20:06;10.75;;;3.38;;
71387;SDS011;59201;59.902;10.520;2023-05-10T02:22:38;8.80;;;3.80;;
71387;SDS011;59201;59.902;10.520;2023-05-10T02:25:06;14.05;;;3.63;;
71387;SDS011;59201;59.902;10.520;2023-05-10T02:27:36;11.10;;;3.80;;
71387;SDS011;59201;59.902;10.520;2023-05-10T02:30:17;10.73;;;3.60;;
71387;SDS011;59201;59.902;10.520;2023-05-10T02:32:51;8.68;;;3.47;;
71387;SDS011;59201;59.902;10.520;2023-05-10T02:35:22;11.98;;;3.97;;
71387;SDS011;59201;59.902;10.520;2023-05-10T02:37:52;11.43;;;3.53;;
71387;SDS011;59201;59.902;10.520;2023-05-10T02:40:25;12.77;;;4.00;;
71387;SDS011;59201;59.902;10.520;2023-05-10T02:42:56;12.73;;;3.90;;
71387;SDS011;59201;59.902;10.520;2023-05-10T02:45:26;10.82;;;4.07;;
71387;SDS011;59201;59.902;10.520;2023-05-10T02:47:56;12.25;;;3.92;;
71387;SDS011;59201;59.902;10.520;2023-05-10T02:50:25;10.75;;;3.80;;
71387;SDS011;59201;59.902;10.520;2023-05-10T02:53:00;10.93;;;3.55;;
71387;SDS011;59201;59.902;10.520;2023-05-10T02:55:35;10.67;;;3.47;;
71387;SDS011;59201;59.902;10.520;2023-05-10T02:58:03;9.98;;;3.30;;
71387;SDS011;59201;59.902;10.520;2023-05-10T03:00:34;15.23;;;4.22;;
71387;SDS011;59201;59.902;10.520;2023-05-10T03:03:08;9.73;;;3.40;;
71387;SDS011;59201;59.902;10.520;2023-05-10T03:05:38;15.10;;;3.33;;
71387;SDS011;59201;59.902;10.520;2023-05-10T03:08:13;12.13;;;3.50;;
71387;SDS011;59201;59.902;10.520;2023-05-10T03:11:04;11.50;;;3.92;;
71387;SDS011;59201;59.902;10.520;2023-05-10T03:14:23;11.20;;;3.80;;
71387;SDS011;59201;59.902;10.520;2023-05-10T03:16:25;9.93;;;3.47;;
71387;SDS011;59201;59.902;10.520;2023-05-10T03:21:42;12.27;;;3.47;;
71387;SDS011;59201;59.902;10.520;2023-05-10T03:24:11;13.65;;;4.25;;
71387;SDS011;59201;59.902;10.520;2023-05-10T03:26:43;11.68;;;3.30;;
71387;SDS011;59201;59.902;10.520;2023-05-10T03:29:14;13.95;;;3.88;;
71387;SDS011;59201;59.902;10.520;2023-05-10T03:31:43;7.25;;;3.50;;
71387;SDS011;59201;59.902;10.520;2023-05-10T03:34:12;12.47;;;3.40;;
71387;SDS011;59201;59.902;10.520;2023-05-10T03:36:46;9.25;;;3.47;;
71387;SDS011;59201;59.902;10.520;2023-05-10T03:39:14;10.77;;;3.85;;
71387;SDS011;59201;59.902;10.520;2023-05-10T03:41:43;8.18;;;3.75;;
71387;SDS011;59201;59.902;10.520;2023-05-10T03:44:15;8.40;;;3.15;;
71387;SDS011;59201;59.902;10.520;2023-05-10T03:46:51;13.93;;;3.60;;
71387;SDS011;59201;59.902;10.520;2023-05-10T03:49:28;11.50;;;3.72;;
71387;SDS011;59201;59.902;10.520;2023-05-10T03:52:00;11.10;;;3.60;;
71387;SDS011;59201;59.902;10.520;2023-05-10T03:54:28;9.38;;;3.63;;
71387;SDS011;59201;59.902;10.520;2023-05-10T03:56:58;8.70;;;3.20;;
71387;SDS011;59201;59.902;10.520;2023-05-10T03:59:27;8.33;;;3.50;;
71387;SDS011;59201;59.902;10.520;2023-05-10T04:01:56;14.90;;;3.50;;
71387;SDS011;59201;59.902;10.520;2023-05-10T04:04:30;10.63;;;3.88;;
71387;SDS011;59201;59.902;10.520;2023-05-10T04:07:00;9.15;;;3.13;;
71387;SDS011;59201;59.902;10.520;2023-05-10T04:09:39;8.57;;;3.25;;
71387;SDS011;59201;59.902;10.520;2023-05-10T04:12:09;8.87;;;3.70;;
71387;SDS011;59201;59.902;10.520;2023-05-10T04:14:36;14.50;;;3.72;;
71387;SDS011;59201;59.902;10.520;2023-05-10T04:17:07;13.48;;;3.85;;
71387;SDS011;59201;59.902;10.520;2023-05-10T04:19:35;11.93;;;4.35;;
71387;SDS011;59201;59.902;10.520;2023-05-10T04:22:08;11.85;;;3.90;;
71387;SDS011;59201;59.902;10.520;2023-05-10T04:24:37;11.27;;;3.10;;
71387;SDS011;59201;59.902;10.520;2023-05-10T04:27:06;14.15;;;3.70;;
71387;SDS011;59201;59.902;10.520;2023-05-10T04:29:41;11.63;;;3.22;;
71387;SDS011;59201;59.902;10.520;2023-05-10T04:32:08;11.43;;;3.47;;
71387;SDS011;59201;59.902;10.520;2023-05-10T04:34:38;14.75;;;4.20;;
71387;SDS011;59201;59.902;10.520;2023-05-10T04:37:10;11.30;;;3.83;;
71387;SDS011;59201;59.902;10.520;2023-05-10T04:39:39;9.75;;;3.63;;
71387;SDS011;59201;59.902;10.520;2023-05-10T04:42:11;10.90;;;3.15;;
71387;SDS011;59201;59.902;10.520;2023-05-10T04:44:42;12.27;;;3.65;;
71387;SDS011;59201;59.902;10.520;2023-05-10T04:47:13;10.45;;;3.47;;
71387;SDS011;59201;59.902;10.520;2023-05-10T04:49:42;14.10;;;3.80;;
71387;SDS011;59201;59.902;10.520;2023-05-10T04:52:16;10.93;;;3.45;;
71387;SDS011;59201;59.902;10.520;2023-05-10T04:55:12;18.67;;;4.30;;
71387;SDS011;59201;59.902;10.520;2023-05-10T04:57:40;9.57;;;3.38;;
71387;SDS011;59201;59.902;10.520;2023-05-10T05:00:10;10.82;;;3.45;;
71387;SDS011;59201;59.902;10.520;2023-05-10T05:02:41;11.63;;;3.07;;
71387;SDS011;59201;59.902;10.520;2023-05-10T05:05:21;13.95;;;3.97;;
71387;SDS011;59201;59.902;10.520;2023-05-10T05:07:48;10.70;;;3.47;;
71387;SDS011;59201;59.902;10.520;2023-05-10T05:10:21;10.07;;;3.20;;
71387;SDS011;59201;59.902;10.520;2023-05-10T05:12:52;8.52;;;2.90;;
71387;SDS011;59201;59.902;10.520;2023-05-10T05:15:27;10.00;;;3.43;;
71387;SDS011;59201;59.902;10.520;2023-05-10T05:17:55;11.98;;;3.10;;
71387;SDS011;59201;59.902;10.520;2023-05-10T05:20:24;12.30;;;3.78;;
71387;SDS011;59201;59.902;10.520;2023-05-10T05:23:01;10.75;;;3.67;;
71387;SDS011;59201;59.902;10.520;2023-05-10T05:25:29;11.48;;;3.47;;
71387;SDS011;59201;59.902;10.520;2023-05-10T05:28:01;9.60;;;3.00;;
71387;SDS011;59201;59.902;10.520;2023-05-10T05:30:42;12.15;;;3.33;;
71387;SDS011;59201;59.902;10.520;2023-05-10T05:33:14;11.35;;;3.47;;
71387;SDS011;59201;59.902;10.520;2023-05-10T05:35:44;13.07;;;3.30;;
71387;SDS011;59201;59.902;10.520;2023-05-10T05:38:17;11.43;;;3.58;;
71387;SDS011;59201;59.902;10.520;2023-05-10T05:40:55;7.63;;;3.10;;
71387;SDS011;59201;59.902;10.520;2023-05-10T05:43:26;8.85;;;3.13;;
71387;SDS011;59201;59.902;10.520;2023-05-10T05:45:56;11.25;;;2.85;;
71387;SDS011;59201;59.902;10.520;2023-05-10T05:48:26;10.00;;;3.20;;
71387;SDS011;59201;59.902;10.520;2023-05-10T05:50:54;8.38;;;3.00;;
71387;SDS011;59201;59.902;10.520;2023-05-10T05:53:25;11.83;;;3.57;;
71387;SDS011;59201;59.902;10.520;2023-05-10T05:55:57;10.98;;;2.85;;
71387;SDS011;59201;59.902;10.520;2023-05-10T05:58:29;8.80;;;2.80;;
71387;SDS011;59201;59.902;10.520;2023-05-10T06:01:00;7.78;;;2.80;;
71387;SDS011;59201;59.902;10.520;2023-05-10T06:03:42;8.90;;;2.58;;
71387;SDS011;59201;59.902;10.520;2023-05-10T06:06:09;9.93;;;2.77;;
71387;SDS011;59201;59.902;10.520;2023-05-10T06:08:37;8.73;;;2.60;;
71387;SDS011;59201;59.902;10.520;2023-05-10T06:11:14;6.93;;;2.72;;
71387;SDS011;59201;59.902;10.520;2023-05-10T06:13:44;6.90;;;2.72;;
71387;SDS011;59201;59.902;10.520;2023-05-10T06:16:14;7.05;;;2.58;;
71387;SDS011;59201;59.902;10.520;2023-05-10T06:18:43;7.40;;;2.70;;
71387;SDS011;59201;59.902;10.520;2023-05-10T06:21:30;8.52;;;2.47;;
71387;SDS011;59201;59.902;10.520;2023-05-10T06:24:09;7.03;;;2.60;;
71387;SDS011;59201;59.902;10.520;2023-05-10T06:26:38;7.55;;;2.80;;
71387;SDS011;59201;59.902;10.520;2023-05-10T06:29:07;8.73;;;2.50;;
71387;SDS011;59201;59.902;10.520;2023-05-10T06:31:41;7.37;;;2.70;;
71387;SDS011;59201;59.902;10.520;2023-05-10T06:34:08;5.82;;;2.42;;
71387;SDS011;59201;59.902;10.520;2023-05-10T06:36:39;7.68;;;2.60;;
71387;SDS011;59201;59.902;10.520;2023-05-10T06:39:07;8.25;;;2.35;;
71387;SDS011;59201;59.902;10.520;2023-05-10T06:41:37;6.63;;;2.20;;
71387;SDS011;59201;59.902;10.520;2023-05-10T06:44:06;6.47;;;2.60;;
71387;SDS011;59201;59.902;10.520;2023-05-10T06:46:36;6.45;;;2.35;;
71387;SDS011;59201;59.902;10.520;2023-05-10T06:49:07;10.20;;;2.60;;
71387;SDS011;59201;59.902;10.520;2023-05-10T06:51:41;8.55;;;2.67;;
71387;SDS011;59201;59.902;10.520;2023-05-10T06:54:12;8.88;;;2.53;;
71387;SDS011;59201;59.902;10.520;2023-05-10T06:56:43;5.67;;;2.13;;
71387;SDS011;59201;59.902;10.520;2023-05-10T06:59:24;6.53;;;2.30;;
71387;SDS011;59201;59.902;10.520;2023-05-10T07:01:56;9.15;;;3.08;;
71387;SDS011;59201;59.902;10.520;2023-05-10T07:04:25;10.57;;;2.83;;
71387;SDS011;59201;59.902;10.520;2023-05-10T07:06:54;16.42;;;3.58;;
71387;SDS011;59201;59.902;10.520;2023-05-10T07:09:24;6.67;;;2.37;;
71387;SDS011;59201;59.902;10.520;2023-05-10T07:11:53;6.25;;;2.40;;
71387;SDS011;59201;59.902;10.520;2023-05-10T07:14:24;5.82;;;2.03;;
71387;SDS011;59201;59.902;10.520;2023-05-10T07:16:55;7.25;;;2.70;;
71387;SDS011;59201;59.902;10.520;2023-05-10T07:19:25;5.38;;;2.15;;
71387;SDS011;59201;59.902;10.520;2023-05-10T07:21:55;6.93;;;2.40;;
71387;SDS011;59201;59.902;10.520;2023-05-10T07:24:24;6.53;;;2.40;;
71387;SDS011;59201;59.902;10.520;2023-05-10T07:26:58;8.45;;;2.58;;
71387;SDS011;59201;59.902;10.520;2023-05-10T07:29:29;5.90;;;2.40;;
71387;SDS011;59201;59.902;10.520;2023-05-10T07:32:04;6.30;;;2.40;;
71387;SDS011;59201;59.902;10.520;2023-05-10T07:34:34;6.50;;;2.80;;
71387;SDS011;59201;59.902;10.520;2023-05-10T07:37:05;9.23;;;2.70;;
71387;SDS011;59201;59.902;10.520;2023-05-10T07:39:33;11.43;;;2.70;;
71387;SDS011;59201;59.902;10.520;2023-05-10T07:42:03;8.60;;;2.72;;
71387;SDS011;59201;59.902;10.520;2023-05-10T07:44:34;6.55;;;2.45;;
71387;SDS011;59201;59.902;10.520;2023-05-10T07:47:06;6.97;;;2.37;;
71387;SDS011;59201;59.902;10.520;2023-05-10T07:49:40;7.10;;;2.80;;
71387;SDS011;59201;59.902;10.520;2023-05-10T07:52:07;6.10;;;2.55;;
71387;SDS011;59201;59.902;10.520;2023-05-10T07:54:41;7.95;;;2.45;;
71387;SDS011;59201;59.902;10.520;2023-05-10T07:57:12;7.65;;;2.45;;
71387;SDS011;59201;59.902;10.520;2023-05-10T07:59:43;6.77;;;2.47;;
71387;SDS011;59201;59.902;10.520;2023-05-10T08:02:17;8.27;;;2.75;;
71387;SDS011;59201;59.902;10.520;2023-05-10T08:04:44;7.03;;;2.67;;
71387;SDS011;59201;59.902;10.520;2023-05-10T08:07:18;7.45;;;2.92;;
71387;SDS011;59201;59.902;10.520;2023-05-10T08:09:47;8.55;;;2.60;;
71387;SDS011;59201;59.902;10.520;2023-05-10T08:12:31;7.20;;;2.30;;
71387;SDS011;59201;59.902;10.520;2023-05-10T08:15:06;7.78;;;2.65;;
71387;SDS011;59201;59.902;10.520;2023-05-10T08:17:38;7.53;;;2.60;;
71387;SDS011;59201;59.902;10.520;2023-05-10T08:20:06;8.48;;;2.20;;
71387;SDS011;59201;59.902;10.520;2023-05-10T08:22:36;7.60;;;2.40;;
71387;SDS011;59201;59.902;10.520;2023-05-10T08:25:05;6.97;;;2.70;;
71387;SDS011;59201;59.902;10.520;2023-05-10T08:27:34;6.75;;;2.60;;
71387;SDS011;59201;59.902;10.520;2023-05-10T08:30:06;8.18;;;2.22;;
71387;SDS011;59201;59.902;10.520;2023-05-10T08:32:36;7.57;;;2.65;;
71387;SDS011;59201;59.902;10.520;2023-05-10T08:35:08;7.45;;;2.63;;
71387;SDS011;59201;59.902;10.520;2023-05-10T08:37:37;6.57;;;2.43;;
71387;SDS011;59201;59.902;10.520;2023-05-10T08:40:07;7.63;;;2.47;;
71387;SDS011;59201;59.902;10.520;2023-05-10T08:42:43;9.18;;;2.53;;
71387;SDS011;59201;59.902;10.520;2023-05-10T08:45:15;6.85;;;2.30;;
71387;SDS011;59201;59.902;10.520;2023-05-10T08:47:47;6.07;;;2.30;;
71387;SDS011;59201;59.902;10.520;2023-05-10T08:50:17;6.80;;;3.13;;
71387;SDS011;59201;59.902;10.520;2023-05-10T08:52:49;5.68;;;2.55;;
71387;SDS011;59201;59.902;10.520;2023-05-10T08:55:24;5.78;;;2.38;;
71387;SDS011;59201;59.902;10.520;2023-05-10T08:58:00;7.97;;;2.72;;
71387;SDS011;59201;59.902;10.520;2023-05-10T09:00:29;5.95;;;2.60;;
71387;SDS011;59201;59.902;10.520;2023-05-10T09:02:59;10.73;;;2.73;;
71387;SDS011;59201;59.902;10.520;2023-05-10T09:05:30;5.47;;;1.90;;
71387;SDS011;59201;59.902;10.520;2023-05-10T09:08:01;7.57;;;2.60;;
71387;SDS011;59201;59.902;10.520;2023-05-10T09:10:31;8.05;;;2.65;;
71387;SDS011;59201;59.902;10.520;2023-05-10T09:13:00;7.70;;;2.65;;
71387;SDS011;59201;59.902;10.520;2023-05-10T09:15:28;6.30;;;2.63;;
71387;SDS011;59201;59.902;10.520;2023-05-10T09:18:01;6.90;;;2.55;;
71387;SDS011;59201;59.902;10.520;2023-05-10T09:20:31;6.57;;;2.50;;
71387;SDS011;59201;59.902;10.520;2023-05-10T09:23:00;7.32;;;2.50;;
71387;SDS011;59201;59.902;10.520;2023-05-10T09:25:29;6.60;;;2.58;;
71387;SDS011;59201;59.902;10.520;2023-05-10T09:28:00;7.63;;;2.70;;
71387;SDS011;59201;59.902;10.520;2023-05-10T09:30:30;6.40;;;2.90;;
71387;SDS011;59201;59.902;10.520;2023-05-10T09:33:05;6.57;;;2.75;;
71387;SDS011;59201;59.902;10.520;2023-05-10T09:35:33;6.80;;;2.78;;
71387;SDS011;59201;59.902;10.520;2023-05-10T09:38:04;7.00;;;2.80;;
71387;SDS011;59201;59.902;10.520;2023-05-10T09:40:39;8.10;;;3.07;;
71387;SDS011;59201;59.902;10.520;2023-05-10T09:43:09;6.28;;;2.80;;
71387;SDS011;59201;59.902;10.520;2023-05-10T09:45:47;6.25;;;2.60;;
71387;SDS011;59201;59.902;10.520;2023-05-10T09:48:23;7.55;;;2.55;;
71387;SDS011;59201;59.902;10.520;2023-05-10T09:50:57;6.80;;;2.60;;
71387;SDS011;59201;59.902;10.520;2023-05-10T09:53:32;6.20;;;2.67;;
71387;SDS011;59201;59.902;10.520;2023-05-10T09:56:04;6.00;;;2.67;;
71387;SDS011;59201;59.902;10.520;2023-05-10T09:58:36;7.85;;;3.03;;
71387;SDS011;59201;59.902;10.520;2023-05-10T10:01:11;6.75;;;2.42;;
71387;SDS011;59201;59.902;10.520;2023-05-10T10:03:43;9.75;;;2.75;;
71387;SDS011;59201;59.902;10.520;2023-05-10T10:06:13;7.20;;;3.00;;
71387;SDS011;59201;59.902;10.520;2023-05-10T10:08:50;9.77;;;2.70;;
71387;SDS011;59201;59.902;10.520;2023-05-10T10:11:25;7.20;;;2.50;;
71387;SDS011;59201;59.902;10.520;2023-05-10T10:13:58;6.25;;;2.70;;
71387;SDS011;59201;59.902;10.520;2023-05-10T10:16:28;7.03;;;3.00;;
71387;SDS011;59201;59.902;10.520;2023-05-10T10:18:57;7.40;;;2.60;;
71387;SDS011;59201;59.902;10.520;2023-05-10T10:21:27;9.35;;;2.67;;
71387;SDS011;59201;59.902;10.520;2023-05-10T10:24:00;7.97;;;2.95;;
71387;SDS011;59201;59.902;10.520;2023-05-10T10:26:32;7.88;;;2.85;;
71387;SDS011;59201;59.902;10.520;2023-05-10T10:29:05;5.72;;;2.45;;
71387;SDS011;59201;59.902;10.520;2023-05-10T10:37:08;6.82;;;3.10;;
71387;SDS011;59201;59.902;10.520;2023-05-10T10:39:43;8.98;;;2.70;;
71387;SDS011;59201;59.902;10.520;2023-05-10T10:42:12;7.88;;;2.70;;
71387;SDS011;59201;59.902;10.520;2023-05-10T10:44:42;7.93;;;2.87;;
71387;SDS011;59201;59.902;10.520;2023-05-10T10:50:02;5.45;;;2.38;;
71387;SDS011;59201;59.902;10.520;2023-05-10T10:52:36;7.18;;;2.40;;
71387;SDS011;59201;59.902;10.520;2023-05-10T10:57:44;6.77;;;2.67;;
71387;SDS011;59201;59.902;10.520;2023-05-10T11:00:23;6.50;;;2.55;;
71387;SDS011;59201;59.902;10.520;2023-05-10T11:08:19;6.20;;;2.55;;
71387;SDS011;59201;59.902;10.520;2023-05-10T11:13:42;7.10;;;2.60;;
71387;SDS011;59201;59.902;10.520;2023-05-10T11:22:50;8.52;;;2.70;;
71387;SDS011;59201;59.902;10.520;2023-05-10T11:25:26;12.60;;;3.03;;
71387;SDS011;59201;59.902;10.520;2023-05-10T11:28:09;7.68;;;3.00;;
71387;SDS011;59201;59.902;10.520;2023-05-10T11:30:42;7.15;;;2.88;;
71387;SDS011;59201;59.902;10.520;2023-05-10T11:33:45;6.70;;;2.50;;
71387;SDS011;59201;59.902;10.520;2023-05-10T11:36:14;7.82;;;3.10;;
71387;SDS011;59201;59.902;10.520;2023-05-10T11:38:43;6.90;;;2.77;;
71387;SDS011;59201;59.902;10.520;2023-05-10T11:41:19;5.97;;;2.20;;
71387;SDS011;59201;59.902;10.520;2023-05-10T11:44:10;7.22;;;2.67;;
71387;SDS011;59201;59.902;10.520;2023-05-10T11:50:14;6.82;;;2.60;;
71387;SDS011;59201;59.902;10.520;2023-05-10T11:55:46;5.82;;;2.50;;
71387;SDS011;59201;59.902;10.520;2023-05-10T12:01:36;6.63;;;2.92;;
71387;SDS011;59201;59.902;10.520;2023-05-10T12:04:06;8.52;;;3.08;;
71387;SDS011;59201;59.902;10.520;2023-05-10T12:06:39;6.83;;;2.87;;
71387;SDS011;59201;59.902;10.520;2023-05-10T12:09:12;6.18;;;2.90;;
71387;SDS011;59201;59.902;10.520;2023-05-10T12:11:45;5.63;;;2.33;;
71387;SDS011;59201;59.902;10.520;2023-05-10T12:17:28;7.85;;;2.75;;
71387;SDS011;59201;59.902;10.520;2023-05-10T12:20:28;7.70;;;3.00;;
71387;SDS011;59201;59.902;10.520;2023-05-10T12:22:59;6.18;;;2.60;;
71387;SDS011;59201;59.902;10.520;2023-05-10T12:25:36;7.65;;;3.05;;
71387;SDS011;59201;59.902;10.520;2023-05-10T12:31:10;7.10;;;2.80;;
71387;SDS011;59201;59.902;10.520;2023-05-10T12:34:21;7.40;;;2.83;;
71387;SDS011;59201;59.902;10.520;2023-05-10T12:36:52;7.20;;;2.80;;
71387;SDS011;59201;59.902;10.520;2023-05-10T12:42:11;7.25;;;2.80;;
71387;SDS011;59201;59.902;10.520;2023-05-10T12:47:46;7.37;;;2.80;;
71387;SDS011;59201;59.902;10.520;2023-05-10T12:50:14;6.28;;;2.40;;
71387;SDS011;59201;59.902;10.520;2023-05-10T12:52:43;6.50;;;2.80;;
71387;SDS011;59201;59.902;10.520;2023-05-10T12:55:12;8.27;;;3.00;;
71387;SDS011;59201;59.902;10.520;2023-05-10T12:57:43;8.20;;;2.65;;
71387;SDS011;59201;59.902;10.520;2023-05-10T13:00:18;5.57;;;2.27;;
71387;SDS011;59201;59.902;10.520;2023-05-10T13:02:48;6.30;;;2.60;;
71387;SDS011;59201;59.902;10.520;2023-05-10T13:05:16;5.65;;;2.42;;
71387;SDS011;59201;59.902;10.520;2023-05-10T13:07:45;6.82;;;3.03;;
71387;SDS011;59201;59.902;10.520;2023-05-10T13:10:25;8.05;;;2.58;;
71387;SDS011;59201;59.902;10.520;2023-05-10T13:12:54;8.43;;;2.60;;
71387;SDS011;59201;59.902;10.520;2023-05-10T13:15:31;5.80;;;2.67;;
71387;SDS011;59201;59.902;10.520;2023-05-10T13:18:05;7.00;;;2.63;;
71387;SDS011;59201;59.902;10.520;2023-05-10T13:20:33;6.78;;;2.70;;
71387;SDS011;59201;59.902;10.520;2023-05-10T13:23:02;6.93;;;2.78;;
71387;SDS011;59201;59.902;10.520;2023-05-10T13:25:36;9.53;;;2.93;;
71387;SDS011;59201;59.902;10.520;2023-05-10T13:28:10;5.50;;;2.40;;
71387;SDS011;59201;59.902;10.520;2023-05-10T13:30:39;8.13;;;2.72;;
71387;SDS011;59201;59.902;10.520;2023-05-10T13:33:07;7.25;;;2.60;;
71387;SDS011;59201;59.902;10.520;2023-05-10T13:35:39;7.68;;;2.95;;
71387;SDS011;59201;59.902;10.520;2023-05-10T13:38:11;7.03;;;2.50;;
71387;SDS011;59201;59.902;10.520;2023-05-10T13:40:40;7.32;;;2.50;;
71387;SDS011;59201;59.902;10.520;2023-05-10T13:43:08;5.78;;;2.40;;
71387;SDS011;59201;59.902;10.520;2023-05-10T13:45:36;8.05;;;2.70;;
71387;SDS011;59201;59.902;10.520;2023-05-10T13:48:06;6.63;;;2.60;;
71387;SDS011;59201;59.902;10.520;2023-05-10T13:50:38;7.37;;;2.67;;
71387;SDS011;59201;59.902;10.520;2023-05-10T13:53:11;6.28;;;2.80;;
71387;SDS011;59201;59.902;10.520;2023-05-10T13:55:40;8.30;;;2.83;;
71387;SDS011;59201;59.902;10.520;2023-05-10T13:58:09;7.68;;;3.05;;
71387;SDS011;59201;59.902;10.520;2023-05-10T14:00:38;7.50;;;2.50;;
71387;SDS011;59201;59.902;10.520;2023-05-10T14:03:07;7.43;;;2.77;;
71387;SDS011;59201;59.902;10.520;2023-05-10T14:05:37;5.82;;;2.47;;
71387;SDS011;59201;59.902;10.520;2023-05-10T14:08:07;7.25;;;2.67;;
71387;SDS011;59201;59.902;10.520;2023-05-10T14:10:40;7.03;;;2.40;;
71387;SDS011;59201;59.902;10.520;2023-05-10T14:13:13;7.05;;;2.70;;
71387;SDS011;59201;59.902;10.520;2023-05-10T14:18:38;6.55;;;2.90;;
71387;SDS011;59201;59.902;10.520;2023-05-10T14:21:20;7.28;;;2.75;;
71387;SDS011;59201;59.902;10.520;2023-05-10T14:23:52;6.78;;;2.70;;
71387;SDS011;59201;59.902;10.520;2023-05-10T14:26:23;6.15;;;2.50;;
71387;SDS011;59201;59.902;10.520;2023-05-10T14:28:52;8.13;;;2.87;;
71387;SDS011;59201;59.902;10.520;2023-05-10T14:31:22;7.25;;;2.78;;
71387;SDS011;59201;59.902;10.520;2023-05-10T14:33:55;6.65;;;3.10;;
71387;SDS011;59201;59.902;10.520;2023-05-10T14:36:25;5.75;;;2.75;;
71387;SDS011;59201;59.902;10.520;2023-05-10T14:38:59;6.00;;;3.00;;
71387;SDS011;59201;59.902;10.520;2023-05-10T14:41:30;7.63;;;2.67;;
71387;SDS011;59201;59.902;10.520;2023-05-10T14:50:25;8.50;;;3.00;;
71387;SDS011;59201;59.902;10.520;2023-05-10T14:53:06;8.98;;;2.95;;
71387;SDS011;59201;59.902;10.520;2023-05-10T14:58:57;6.82;;;2.63;;
71387;SDS011;59201;59.902;10.520;2023-05-10T15:04:51;5.70;;;2.60;;
71387;SDS011;59201;59.902;10.520;2023-05-10T15:07:21;6.70;;;3.05;;
71387;SDS011;59201;59.902;10.520;2023-05-10T15:09:51;7.07;;;2.63;;
71387;SDS011;59201;59.902;10.520;2023-05-10T15:12:19;6.20;;;2.60;;
71387;SDS011;59201;59.902;10.520;2023-05-10T15:14:49;8.15;;;2.95;;
71387;SDS011;59201;59.902;10.520;2023-05-10T15:17:18;5.70;;;2.60;;
71387;SDS011;59201;59.902;10.520;2023-05-10T15:19:48;7.60;;;2.85;;
71387;SDS011;59201;59.902;10.520;2023-05-10T15:22:18;6.13;;;2.80;;
71387;SDS011;59201;59.902;10.520;2023-05-10T15:24:59;7.47;;;2.80;;
71387;SDS011;59201;59.902;10.520;2023-05-10T15:27:29;7.25;;;3.00;;
71387;SDS011;59201;59.902;10.520;2023-05-10T15:30:04;7.55;;;2.70;;
71387;SDS011;59201;59.902;10.520;2023-05-10T15:32:35;8.48;;;2.95;;
71387;SDS011;59201;59.902;10.520;2023-05-10T15:35:06;7.33;;;2.80;;
71387;SDS011;59201;59.902;10.520;2023-05-10T15:37:39;8.93;;;2.75;;
71387;SDS011;59201;59.902;10.520;2023-05-10T15:40:10;9.30;;;3.03;;
71387;SDS011;59201;59.902;10.520;2023-05-10T15:42:46;8.15;;;2.63;;
71387;SDS011;59201;59.902;10.520;2023-05-10T15:45:15;6.70;;;2.90;;
71387;SDS011;59201;59.902;10.520;2023-05-10T15:47:44;5.60;;;2.57;;
71387;SDS011;59201;59.902;10.520;2023-05-10T15:50:12;6.82;;;3.03;;
71387;SDS011;59201;59.902;10.520;2023-05-10T15:52:41;11.25;;;3.10;;
71387;SDS011;59201;59.902;10.520;2023-05-10T15:55:12;7.22;;;3.08;;
71387;SDS011;59201;59.902;10.520;2023-05-10T15:57:41;10.70;;;3.03;;
71387;SDS011;59201;59.902;10.520;2023-05-10T16:00:09;6.80;;;2.80;;
71387;SDS011;59201;59.902;10.520;2023-05-10T16:02:48;7.03;;;2.92;;
71387;SDS011;59201;59.902;10.520;2023-05-10T16:05:34;8.50;;;2.75;;
71387;SDS011;59201;59.902;10.520;2023-05-10T16:11:29;7.75;;;2.92;;
71387;SDS011;59201;59.902;10.520;2023-05-10T16:17:03;6.72;;;2.72;;
71387;SDS011;59201;59.902;10.520;2023-05-10T16:25:43;10.43;;;3.15;;
71387;SDS011;59201;59.902;10.520;2023-05-10T16:28:18;9.40;;;3.03;;
71387;SDS011;59201;59.902;10.520;2023-05-10T16:30:55;9.00;;;3.15;;
71387;SDS011;59201;59.902;10.520;2023-05-10T16:33:29;8.40;;;2.90;;
71387;SDS011;59201;59.902;10.520;2023-05-10T16:35:59;8.40;;;3.20;;
71387;SDS011;59201;59.902;10.520;2023-05-10T16:38:30;8.55;;;3.20;;
71387;SDS011;59201;59.902;10.520;2023-05-10T16:41:01;7.07;;;2.60;;